Time;durP1;ratioP1;P1;durP2;ratioP2;P2;SDS_P1;SDS_P2;PMS_P1;PMS_P2;Temp;Humidity;BMP_temperature;BMP_pressure;BME280_temperature;BME280_humidity;BME280_pressure;Samples;Min_cycle;Max_cycle;Signal;HPM_P1;HPM_P2
2023/01/14 00:01:31;;;;;;;;;;;4.70;99.90;;;;;;5028420;28;20370;-79
2023/01/14 00:03:57;;;;;;;;;;;4.70;99.90;;;;;;5028212;28;19921;-80
2023/01/14 00:06:23;;;;;;;;;;;4.60;99.90;;;;;;5036021;28;19913;-80
2023/01/14 00:08:55;;;;;;;;;;;4.60;99.90;;;;;;5046520;28;19912;-80
2023/01/14 00:11:45;;;;;;;;;;;4.50;99.90;;;;;;5046059;28;19913;-80
2023/01/14 00:14:06;;;;;;;;;;;4.50;99.90;;;;;;5043486;28;19917;-80
2023/01/14 00:16:31;;;;;;;;;;;4.50;99.90;;;;;;5026598;28;19937;-80
2023/01/14 00:18:57;;;;;;;;;;;4.50;99.90;;;;;;5032374;28;19897;-80
2023/01/14 00:21:22;;;;;;;;;;;4.50;99.90;;;;;;5025689;28;19910;-80
2023/01/14 00:23:52;;;;;;;;;;;4.60;99.90;;;;;;5022795;28;19909;-80
2023/01/14 00:26:17;;;;;;;;;;;4.60;99.90;;;;;;5024281;28;19980;-80
2023/01/14 00:28:46;;;;;;;;;;;4.50;99.90;;;;;;5023205;28;19909;-79
2023/01/14 00:31:13;;;;;;;;;;;4.50;99.90;;;;;;5023919;28;19925;-80
2023/01/14 00:33:39;;;;;;;;;;;4.50;99.90;;;;;;5025207;28;20410;-80
2023/01/14 00:36:05;;;;;;;;;;;4.40;99.90;;;;;;5038559;28;19914;-80
2023/01/14 00:38:31;;;;;;;;;;;4.30;99.90;;;;;;5024517;28;19988;-80
2023/01/14 00:41:03;;;;;;;;;;;4.20;99.90;;;;;;5024083;28;19909;-80
2023/01/14 00:43:28;;;;;;;;;;;4.20;99.90;;;;;;5024420;28;19981;-80
2023/01/14 00:45:54;;;;;;;;;;;4.20;99.90;;;;;;5024052;28;19917;-81
2023/01/14 00:48:19;;;;;;;;;;;4.10;99.90;;;;;;5025023;28;19920;-79
2023/01/14 00:50:45;;;;;;;;;;;4.10;99.90;;;;;;5026495;28;19910;-82
2023/01/14 00:53:11;;;;;;;;;;;4.10;99.90;;;;;;5027368;28;19913;-81
2023/01/14 00:55:36;;;;;;;;;;;4.00;99.90;;;;;;5025238;28;19909;-80
2023/01/14 00:58:02;;;;;;;;;;;4.00;99.90;;;;;;5025347;28;19917;-81
2023/01/14 01:00:27;;;;;;;;;;;4.00;99.90;;;;;;5026066;28;19988;-79
2023/01/14 01:02:53;;;;;;;;;;;3.90;99.90;;;;;;5024520;28;19909;-80
2023/01/14 01:05:18;;;;;;;;;;;3.90;99.90;;;;;;5048498;28;19936;-80
2023/01/14 01:07:47;;;;;;;;;;;3.90;99.90;;;;;;5031530;28;19902;-78
2023/01/14 01:10:13;;;;;;;;;;;4.00;99.90;;;;;;5035470;28;19957;-79
2023/01/14 01:12:38;;;;;;;;;;;4.00;99.90;;;;;;5035738;28;19922;-78
2023/01/14 01:15:04;;;;;;;;;;;4.00;99.90;;;;;;5039089;28;19901;-78
2023/01/14 01:17:30;;;;;;;;;;;4.00;99.90;;;;;;5038961;28;19940;-80
2023/01/14 01:19:55;;;;;;;;;;;4.00;99.90;;;;;;5034417;28;19901;-80
2023/01/14 01:22:21;;;;;;;;;;;4.00;99.90;;;;;;5037523;28;19914;-81
2023/01/14 01:24:47;;;;;;;;;;;4.00;99.90;;;;;;5029727;28;19913;-81
2023/01/14 01:27:12;;;;;;;;;;;4.00;99.90;;;;;;5027354;28;20398;-79
2023/01/14 01:29:38;;;;;;;;;;;4.00;99.90;;;;;;5028134;28;20627;-81
2023/01/14 01:32:03;;;;;;;;;;;4.00;99.90;;;;;;5027769;28;20028;-80
2023/01/14 01:34:29;;;;;;;;;;;3.90;99.90;;;;;;5028221;28;19968;-79
2023/01/14 01:36:54;;;;;;;;;;;3.90;99.90;;;;;;5035392;28;19913;-79
2023/01/14 01:39:20;;;;;;;;;;;3.90;99.90;;;;;;5024988;28;19914;-81
2023/01/14 01:41:45;;;;;;;;;;;3.90;99.90;;;;;;5028103;28;19898;-78
2023/01/14 01:44:14;;;;;;;;;;;3.90;99.90;;;;;;5028090;28;19913;-79
2023/01/14 01:46:40;;;;;;;;;;;3.90;99.90;;;;;;5026713;28;20384;-79
2023/01/14 01:49:09;;;;;;;;;;;3.90;99.90;;;;;;5026222;28;19944;-80
2023/01/14 01:52:04;;;;;;;;;;;3.90;99.90;;;;;;5025924;28;20107;-80
2023/01/14 01:54:34;;;;;;;;;;;3.90;99.90;;;;;;5029400;28;19932;-79
2023/01/14 01:57:01;;;;;;;;;;;3.90;99.90;;;;;;5028656;28;19968;-80
2023/01/14 01:59:31;;;;;;;;;;;3.90;99.90;;;;;;5026381;28;19920;-80
2023/01/14 02:01:57;;;;;;;;;;;4.00;99.90;;;;;;5026980;28;19909;-80
2023/01/14 02:04:22;;;;;;;;;;;4.00;99.90;;;;;;5034426;28;19960;-80
2023/01/14 02:06:48;;;;;;;;;;;4.00;99.90;;;;;;5037505;28;19910;-79
2023/01/14 02:09:14;;;;;;;;;;;4.00;99.90;;;;;;5027611;28;19913;-80
2023/01/14 02:11:59;;;;;;;;;;;4.00;99.90;;;;;;5026521;28;19918;-80
2023/01/14 02:14:24;;;;;;;;;;;4.10;99.90;;;;;;5027461;28;19936;-80
2023/01/14 02:16:53;;;;;;;;;;;4.20;99.90;;;;;;5026488;28;19909;-80
2023/01/14 02:19:21;;;;;;;;;;;4.20;99.90;;;;;;5027195;28;20008;-80
2023/01/14 02:22:02;;;;;;;;;;;4.20;99.90;;;;;;5028029;28;20004;-80
2023/01/14 02:24:44;;;;;;;;;;;4.20;99.90;;;;;;5036636;28;19992;-79
2023/01/14 02:27:16;;;;;;;;;;;4.30;99.90;;;;;;5035108;28;19909;-80
2023/01/14 02:29:44;;;;;;;;;;;4.40;99.90;;;;;;5025614;28;20294;-80
2023/01/14 02:32:15;;;;;;;;;;;4.40;99.90;;;;;;5025398;28;20040;-81
2023/01/14 02:34:49;;;;;;;;;;;4.30;99.90;;;;;;5024863;28;20009;-80
2023/01/14 02:37:23;;;;;;;;;;;4.30;99.90;;;;;;5077104;28;20278;-80
2023/01/14 02:39:51;;;;;;;;;;;4.20;99.90;;;;;;5037931;28;19993;-79
2023/01/14 02:45:29;;;;;;;;;;;4.10;99.90;;;;;;5026834;28;19916;-80
2023/01/14 02:47:55;;;;;;;;;;;4.00;99.90;;;;;;5025333;28;19917;-79
2023/01/14 02:50:21;;;;;;;;;;;4.00;99.90;;;;;;5025016;28;20270;-81
2023/01/14 02:52:46;;;;;;;;;;;4.00;99.90;;;;;;5024838;28;19918;-79
2023/01/14 02:55:32;;;;;;;;;;;4.00;99.90;;;;;;5023981;28;19949;-79
2023/01/14 02:58:17;;;;;;;;;;;4.00;99.90;;;;;;5024999;28;19926;-80
2023/01/14 03:06:27;;;;;;;;;;;4.00;99.90;;;;;;5111256;23;19998;-79
2023/01/14 04:47:25;;;;;;;;;;;;;;;;;;;;;
2023/01/14 05:26:53;;;;;;;;;;;;;;;;;;;;;
2023/01/14 05:46:58;;;;;;;;;;;5.00;99.90;;;;;;5021315;28;19982;-81
2023/01/14 06:07:05;;;;;;;;;;;4.40;99.90;;;;;;4960342;28;19977;-80
2023/01/14 06:13:14;;;;;;;;;;;4.30;99.90;;;;;;4861170;29;19935;-80
2023/01/14 06:15:52;;;;;;;;;;;4.10;99.90;;;;;;4863649;29;19912;-81
2023/01/14 06:27:05;;;;;;;;;;;4.00;99.90;;;;;;5024143;28;19920;-82
2023/01/14 06:30:10;;;;;;;;;;;;;;;;;;;;;
2023/01/14 06:35:55;;;;;;;;;;;3.80;99.90;;;;;;4956047;28;19977;-80
2023/01/14 06:38:29;;;;;;;;;;;3.70;99.90;;;;;;5015047;28;20004;-80
2023/01/14 06:41:11;;;;;;;;;;;3.70;99.90;;;;;;5009131;28;20362;-80
2023/01/14 06:50:13;;;;;;;;;;;;;;;;;;;;;
2023/01/14 06:58:40;;;;;;;;;;;3.50;99.90;;;;;;4994801;28;19910;-81
2023/01/14 07:01:06;;;;;;;;;;;3.50;99.90;;;;;;5043368;28;19913;-81
2023/01/14 07:03:32;;;;;;;;;;;3.50;99.90;;;;;;5018443;28;19916;-84
2023/01/14 07:06:03;;;;;;;;;;;3.50;99.90;;;;;;5017909;28;20043;-82
2023/01/14 07:08:55;;;;;;;;;;;3.40;99.90;;;;;;5017775;28;19909;-80
2023/01/14 07:11:34;;;;;;;;;;;3.50;99.90;;;;;;4996767;28;20385;-80
2023/01/14 07:14:39;;;;;;;;;;;3.50;99.90;;;;;;4998036;28;20316;-81
2023/01/14 07:20:31;;;;;;;;;;;3.50;99.90;;;;;;4953319;28;20001;-80
2023/01/14 07:23:13;;;;;;;;;;;3.50;99.90;;;;;;4956499;29;19914;-80
2023/01/14 07:26:07;;;;;;;;;;;3.60;99.90;;;;;;4956840;29;19951;-80
2023/01/14 07:32:10;;;;;;;;;;;;;;;;;;;;;
2023/01/14 07:35:14;;;;;;;;;;;3.80;99.90;;;;;;4933146;29;20285;-80
2023/01/14 07:38:23;;;;;;;;;;;3.80;99.90;;;;;;5005455;28;19920;-81
2023/01/14 07:41:18;;;;;;;;;;;4.00;99.90;;;;;;5012924;28;19959;-81
2023/01/14 07:44:06;;;;;;;;;;;;;;;;;;;;;
2023/01/14 07:47:22;;;;;;;;;;;;;;;;;;;;;
2023/01/14 07:50:08;;;;;;;;;;;;;;;;;;;;;
2023/01/14 07:53:14;;;;;;;;;;;4.40;99.90;;;;;;5005210;28;20013;-79
2023/01/14 07:56:17;;;;;;;;;;;4.60;99.90;;;;;;4988605;28;19956;-80
2023/01/14 08:02:01;;;;;;;;;;;4.80;99.90;;;;;;5017592;28;19910;-79
2023/01/14 08:07:51;;;;;;;;;;;;;;;;;;;;;
2023/01/14 08:10:38;;;;;;;;;;;5.10;99.90;;;;;;5020629;28;20367;-80
2023/01/14 08:13:43;;;;;;;;;;;;;;;;;;;;;
2023/01/14 08:19:29;;;;;;;;;;;5.00;99.90;;;;;;5020469;28;19959;-81
2023/01/14 08:22:14;;;;;;;;;;;5.00;99.90;;;;;;5025708;28;19964;-80
2023/01/14 08:24:59;;;;;;;;;;;4.90;99.90;;;;;;5027320;28;19936;-80
2023/01/14 08:33:49;;;;;;;;;;;5.20;99.90;;;;;;5017583;28;20055;-81
2023/01/14 08:36:56;;;;;;;;;;;5.30;99.90;;;;;;5001929;28;19961;-81
2023/01/14 08:39:56;;;;;;;;;;;5.40;99.90;;;;;;4999792;28;19914;-80
2023/01/14 08:42:47;;;;;;;;;;;5.50;99.90;;;;;;4991311;28;19929;-79
2023/01/14 08:45:25;;;;;;;;;;;5.60;99.90;;;;;;5017095;28;19913;-78
2023/01/14 08:54:28;;;;;;;;;;;;;;;;;;;;;
2023/01/14 08:57:02;;;;;;;;;;;5.80;99.60;;;;;;5016171;28;19902;-80
2023/01/14 09:02:35;;;;;;;;;;;;;;;;;;;;;
2023/01/14 09:21:07;;;;;;;;;;;;;;;;;;;;;
2023/01/14 09:24:01;;;;;;;;;;;6.60;97.40;;;;;;4981995;28;19977;-80
2023/01/14 09:26:53;;;;;;;;;;;6.90;97.20;;;;;;4981639;28;19911;-81
2023/01/14 09:32:02;;;;;;;;;;;7.20;95.20;;;;;;5067336;23;19933;-80
2023/01/14 09:37:30;;;;;;;;;;;7.50;94.70;;;;;;5062335;28;20069;-80
2023/01/14 09:40:25;;;;;;;;;;;7.70;94.00;;;;;;5198757;23;19964;-78
2023/01/14 09:43:05;;;;;;;;;;;7.90;93.40;;;;;;5029023;28;19926;-78
2023/01/14 09:48:37;;;;;;;;;;;8.20;92.10;;;;;;5039280;23;19987;-82
2023/01/14 09:51:03;;;;;;;;;;;8.20;91.50;;;;;;5043038;28;20373;-81
2023/01/14 09:53:41;;;;;;;;;;;8.20;91.40;;;;;;5041223;28;20369;-80
2023/01/14 09:56:17;;;;;;;;;;;8.20;91.40;;;;;;5025084;28;19925;-82
2023/01/14 09:58:47;;;;;;;;;;;8.20;91.30;;;;;;5037565;28;19917;-82
2023/01/14 10:01:17;;;;;;;;;;;8.30;91.30;;;;;;5041856;28;19933;-81
2023/01/14 10:03:45;;;;;;;;;;;8.40;91.00;;;;;;5043552;28;20273;-81
2023/01/14 10:06:16;;;;;;;;;;;8.60;90.70;;;;;;5033897;28;20285;-81
2023/01/14 10:08:51;;;;;;;;;;;8.90;90.00;;;;;;5061398;28;19969;-82
2023/01/14 10:11:17;;;;;;;;;;;9.10;88.40;;;;;;5043440;28;20427;-81
2023/01/14 10:13:58;;;;;;;;;;;9.40;86.70;;;;;;5061691;28;19909;-82
2023/01/14 10:16:27;;;;;;;;;;;9.50;85.40;;;;;;5048546;28;19917;-82
2023/01/14 10:18:56;;;;;;;;;;;9.40;84.60;;;;;;5040604;28;19981;-82
2023/01/14 10:21:36;;;;;;;;;;;9.30;82.10;;;;;;5046393;28;20011;-81
2023/01/14 10:24:02;;;;;;;;;;;9.20;82.00;;;;;;5041989;28;20043;-82
2023/01/14 10:26:33;;;;;;;;;;;9.10;82.00;;;;;;5050294;28;19963;-82
2023/01/14 10:29:19;;;;;;;;;;;9.10;82.60;;;;;;5061527;28;19909;-81
2023/01/14 10:32:04;;;;;;;;;;;9.20;82.50;;;;;;5059831;28;19917;-82
2023/01/14 10:34:33;;;;;;;;;;;9.30;81.60;;;;;;5059026;28;19917;-82
2023/01/14 10:36:59;;;;;;;;;;;9.40;81.40;;;;;;5036726;28;19972;-82
2023/01/14 10:39:24;;;;;;;;;;;9.50;80.60;;;;;;5056315;28;19905;-81
2023/01/14 10:41:53;;;;;;;;;;;9.50;79.50;;;;;;5028032;28;19920;-82
2023/01/14 10:44:19;;;;;;;;;;;9.60;79.40;;;;;;5043750;28;19996;-83
2023/01/14 10:46:45;;;;;;;;;;;9.60;78.50;;;;;;5031533;28;19967;-81
2023/01/14 10:49:39;;;;;;;;;;;9.70;78.70;;;;;;5058809;28;19917;-84
2023/01/14 10:52:19;;;;;;;;;;;9.80;78.40;;;;;;5063239;28;20011;-81
2023/01/14 10:55:03;;;;;;;;;;;10.00;77.70;;;;;;5056604;28;19917;-80
2023/01/14 10:57:30;;;;;;;;;;;10.00;76.50;;;;;;5048669;28;20251;-82
2023/01/14 10:59:56;;;;;;;;;;;9.90;76.30;;;;;;5038970;28;20008;-81
2023/01/14 11:02:22;;;;;;;;;;;9.90;76.70;;;;;;5040759;28;19916;-82
2023/01/14 11:04:48;;;;;;;;;;;9.90;76.80;;;;;;5044216;28;19909;-82
2023/01/14 11:07:20;;;;;;;;;;;9.90;77.30;;;;;;5050781;28;19939;-80
2023/01/14 11:09:46;;;;;;;;;;;10.00;77.30;;;;;;5058900;28;19932;-80
2023/01/14 11:12:24;;;;;;;;;;;10.10;76.60;;;;;;5063393;28;19916;-81
2023/01/14 11:14:49;;;;;;;;;;;10.20;76.10;;;;;;5047079;28;19909;-81
2023/01/14 11:17:22;;;;;;;;;;;10.30;75.60;;;;;;5063640;28;19915;-81
2023/01/14 11:19:48;;;;;;;;;;;10.30;75.80;;;;;;5062018;28;19909;-81
2023/01/14 11:22:13;;;;;;;;;;;10.30;75.20;;;;;;5041804;28;19913;-82
2023/01/14 11:24:43;;;;;;;;;;;10.40;75.80;;;;;;5060456;28;19923;-81
2023/01/14 11:27:20;;;;;;;;;;;10.50;75.40;;;;;;5059202;28;19915;-81
2023/01/14 11:29:48;;;;;;;;;;;10.50;74.60;;;;;;5039743;28;19916;-81
2023/01/14 11:32:15;;;;;;;;;;;10.50;75.00;;;;;;5042607;28;19917;-81
2023/01/14 11:34:40;;;;;;;;;;;10.60;75.00;;;;;;5058398;28;19938;-82
2023/01/14 11:37:15;;;;;;;;;;;10.60;74.90;;;;;;5042688;28;19944;-81
2023/01/14 11:39:45;;;;;;;;;;;10.60;74.20;;;;;;5040193;28;19920;-81
2023/01/14 11:42:19;;;;;;;;;;;10.60;74.10;;;;;;5059322;28;20342;-81
2023/01/14 11:44:54;;;;;;;;;;;10.70;73.80;;;;;;5059398;28;19916;-82
2023/01/14 11:47:20;;;;;;;;;;;10.60;73.30;;;;;;5059173;28;19935;-82
2023/01/14 11:49:47;;;;;;;;;;;10.70;73.20;;;;;;5045845;28;19964;-81
2023/01/14 11:52:16;;;;;;;;;;;10.60;72.40;;;;;;5039018;28;19985;-81
2023/01/14 11:54:44;;;;;;;;;;;10.60;72.90;;;;;;5038471;28;19913;-81
2023/01/14 11:57:17;;;;;;;;;;;10.50;73.10;;;;;;5036489;28;19976;-81
2023/01/14 11:59:43;;;;;;;;;;;10.50;73.30;;;;;;5021060;28;19945;-81
2023/01/14 12:02:09;;;;;;;;;;;10.50;73.30;;;;;;5039086;28;19989;-81
2023/01/14 12:04:38;;;;;;;;;;;10.60;73.50;;;;;;5049684;28;19948;-81
2023/01/14 12:07:06;;;;;;;;;;;10.60;73.90;;;;;;5048443;28;19920;-80
2023/01/14 12:09:41;;;;;;;;;;;10.60;73.40;;;;;;5040061;28;19909;-81
2023/01/14 12:12:21;;;;;;;;;;;10.50;72.20;;;;;;5039615;28;19999;-80
2023/01/14 12:17:49;;;;;;;;;;;10.50;72.10;;;;;;5038475;28;19975;-81
2023/01/14 12:20:17;;;;;;;;;;;10.50;72.00;;;;;;5048400;28;19913;-81
2023/01/14 12:22:45;;;;;;;;;;;10.50;72.10;;;;;;5058175;28;19908;-82
2023/01/14 12:25:28;;;;;;;;;;;10.50;72.10;;;;;;5057836;28;19963;-82
2023/01/14 12:27:56;;;;;;;;;;;10.50;71.60;;;;;;5057274;28;19984;-81
2023/01/14 12:30:45;;;;;;;;;;;10.50;71.40;;;;;;5049148;28;19912;-82
2023/01/14 12:33:10;;;;;;;;;;;10.60;70.80;;;;;;5037605;28;19925;-81
2023/01/14 12:35:44;;;;;;;;;;;10.60;70.10;;;;;;5022787;28;19940;-82
2023/01/14 12:47:05;;;;;;;;;;;10.90;66.20;;;;;;5046956;28;19933;-82
2023/01/14 12:49:32;;;;;;;;;;;10.90;65.80;;;;;;5056572;28;19924;-81
2023/01/14 12:51:57;;;;;;;;;;;11.00;65.50;;;;;;5053058;28;20340;-81
2023/01/14 12:54:27;;;;;;;;;;;11.00;65.40;;;;;;5054240;28;20015;-81
2023/01/14 12:56:54;;;;;;;;;;;10.90;65.70;;;;;;5056437;28;20039;-80
2023/01/14 12:59:22;;;;;;;;;;;10.90;65.70;;;;;;5057849;28;19909;-81
2023/01/14 13:01:52;;;;;;;;;;;11.00;64.80;;;;;;5052425;28;19932;-81
2023/01/14 13:04:20;;;;;;;;;;;10.90;64.40;;;;;;5055595;28;19943;-80
2023/01/14 13:06:51;;;;;;;;;;;11.00;64.60;;;;;;5047327;28;19909;-80
2023/01/14 13:09:19;;;;;;;;;;;11.00;64.80;;;;;;5049386;28;19913;-81
2023/01/14 13:11:46;;;;;;;;;;;11.10;64.70;;;;;;5039921;28;19920;-81
2023/01/14 13:14:18;;;;;;;;;;;11.10;64.40;;;;;;5053407;28;19959;-81
2023/01/14 13:16:44;;;;;;;;;;;11.10;64.50;;;;;;5058996;28;19936;-82
2023/01/14 13:19:24;;;;;;;;;;;11.10;64.80;;;;;;5060389;28;19909;-81
2023/01/14 13:21:53;;;;;;;;;;;11.00;65.10;;;;;;5055088;28;19916;-81
2023/01/14 13:24:32;;;;;;;;;;;11.00;65.70;;;;;;5061615;28;19943;-81
2023/01/14 13:26:59;;;;;;;;;;;11.00;66.30;;;;;;5061490;28;19913;-82
2023/01/14 13:29:28;;;;;;;;;;;11.00;66.90;;;;;;5058636;28;19972;-81
2023/01/14 13:31:55;;;;;;;;;;;10.90;67.00;;;;;;5054453;28;19967;-81
2023/01/14 13:34:21;;;;;;;;;;;10.80;67.40;;;;;;5070187;28;19916;-81
2023/01/14 13:37:08;;;;;;;;;;;10.80;67.40;;;;;;5051707;28;19909;-81
2023/01/14 13:39:33;;;;;;;;;;;10.80;67.40;;;;;;5055305;28;19977;-81
2023/01/14 13:42:00;;;;;;;;;;;10.80;67.00;;;;;;5069910;28;19948;-79
2023/01/14 13:44:27;;;;;;;;;;;10.80;67.20;;;;;;5046352;28;19909;-81
2023/01/14 13:46:56;;;;;;;;;;;10.70;67.30;;;;;;5056037;28;19924;-81
2023/01/14 13:49:24;;;;;;;;;;;10.70;67.40;;;;;;5045342;28;20227;-80
2023/01/14 13:51:50;;;;;;;;;;;10.60;67.40;;;;;;5059325;28;19919;-81
2023/01/14 13:54:23;;;;;;;;;;;10.60;68.00;;;;;;5048535;28;20258;-81
2023/01/14 13:56:49;;;;;;;;;;;10.60;68.40;;;;;;5041613;28;19908;-81
2023/01/14 13:59:21;;;;;;;;;;;10.50;68.50;;;;;;5041667;28;20381;-82
2023/01/14 14:01:47;;;;;;;;;;;10.50;68.50;;;;;;5060227;28;19915;-81
2023/01/14 14:04:14;;;;;;;;;;;10.50;68.40;;;;;;5060272;28;19998;-81
2023/01/14 14:06:41;;;;;;;;;;;10.40;68.60;;;;;;5052196;28;19913;-82
2023/01/14 14:09:21;;;;;;;;;;;10.30;68.50;;;;;;5055404;28;19916;-81
2023/01/14 14:14:03;;;;;;;;;;;10.30;68.80;;;;;;5040222;28;19941;-82
2023/01/14 14:15:02;;;;;;;;;;;10.20;69.10;;;;;;5037384;28;20374;-82
2023/01/14 14:17:37;;;;;;;;;;;10.10;69.50;;;;;;5056420;28;20004;-82
2023/01/14 14:20:05;;;;;;;;;;;10.10;69.50;;;;;;5040734;28;20381;-82
2023/01/14 14:22:35;;;;;;;;;;;10.00;69.60;;;;;;5055493;28;19956;-80
2023/01/14 14:25:06;;;;;;;;;;;10.00;69.60;;;;;;5036679;28;19939;-81
2023/01/14 14:27:43;;;;;;;;;;;9.90;69.20;;;;;;5047625;28;19909;-80
2023/01/14 14:30:08;;;;;;;;;;;9.90;69.00;;;;;;5060418;28;19920;-80
2023/01/14 14:32:35;;;;;;;;;;;9.90;68.80;;;;;;5060969;28;19912;-80
2023/01/14 14:35:11;;;;;;;;;;;9.90;68.20;;;;;;5055527;28;19910;-80
2023/01/14 14:37:37;;;;;;;;;;;9.90;68.30;;;;;;5047787;28;19912;-80
2023/01/14 14:40:05;;;;;;;;;;;9.90;68.60;;;;;;5038067;28;19971;-82
2023/01/14 14:42:31;;;;;;;;;;;9.90;68.50;;;;;;5054083;28;19959;-82
2023/01/14 14:44:58;;;;;;;;;;;9.90;68.50;;;;;;5058562;28;19942;-82
2023/01/14 14:47:25;;;;;;;;;;;9.80;68.40;;;;;;5069791;28;19921;-83
2023/01/14 14:49:51;;;;;;;;;;;9.80;68.50;;;;;;5039448;28;19932;-82
2023/01/14 14:52:18;;;;;;;;;;;9.70;68.70;;;;;;5048203;28;19913;-82
2023/01/14 14:54:44;;;;;;;;;;;9.60;68.90;;;;;;5052175;28;19951;-82
2023/01/14 14:57:23;;;;;;;;;;;9.50;69.20;;;;;;5035156;28;20361;-81
2023/01/14 14:59:51;;;;;;;;;;;9.40;69.60;;;;;;5045984;28;20015;-80
2023/01/14 15:02:28;;;;;;;;;;;9.30;70.10;;;;;;5042972;28;19908;-81
2023/01/14 15:04:58;;;;;;;;;;;9.20;70.60;;;;;;5056189;28;19924;-80
2023/01/14 15:07:24;;;;;;;;;;;9.10;71.10;;;;;;5055508;28;19919;-82
2023/01/14 15:09:50;;;;;;;;;;;9.00;71.60;;;;;;5061703;28;19948;-81
2023/01/14 15:12:18;;;;;;;;;;;8.90;72.20;;;;;;5049338;28;19913;-82
2023/01/14 15:14:53;;;;;;;;;;;8.80;72.70;;;;;;5050537;28;19920;-82
2023/01/14 15:17:19;;;;;;;;;;;8.80;73.40;;;;;;5038230;28;19909;-82
2023/01/14 15:19:46;;;;;;;;;;;8.70;73.90;;;;;;5038489;28;19913;-82
2023/01/14 15:22:13;;;;;;;;;;;8.70;74.40;;;;;;5040935;28;19909;-81
2023/01/14 15:24:40;;;;;;;;;;;8.70;74.90;;;;;;5048663;28;19913;-82
2023/01/14 15:27:06;;;;;;;;;;;8.70;75.30;;;;;;5048055;28;19913;-81
2023/01/14 15:29:33;;;;;;;;;;;8.60;75.70;;;;;;5046125;28;19917;-81
2023/01/14 15:32:17;;;;;;;;;;;8.50;76.30;;;;;;5052877;28;20361;-82
2023/01/14 15:34:47;;;;;;;;;;;8.50;77.00;;;;;;5050648;28;19916;-82
2023/01/14 15:37:20;;;;;;;;;;;8.40;77.50;;;;;;5058264;28;19909;-82
2023/01/14 15:39:46;;;;;;;;;;;8.40;77.90;;;;;;5057031;28;19913;-82
2023/01/14 15:42:15;;;;;;;;;;;8.30;78.40;;;;;;5062266;28;19951;-83
2023/01/14 15:44:43;;;;;;;;;;;8.30;78.80;;;;;;5057869;28;19991;-81
2023/01/14 15:47:08;;;;;;;;;;;8.20;79.20;;;;;;5057083;28;19908;-80
2023/01/14 15:49:34;;;;;;;;;;;8.20;79.80;;;;;;5043281;28;19967;-81
2023/01/14 15:52:01;;;;;;;;;;;8.10;80.10;;;;;;5053737;28;19912;-82
2023/01/14 15:54:35;;;;;;;;;;;8.10;80.50;;;;;;5043466;28;19909;-81
2023/01/14 15:57:12;;;;;;;;;;;8.00;80.70;;;;;;5056968;28;19909;-81
2023/01/14 15:59:38;;;;;;;;;;;8.00;81.20;;;;;;5057530;28;20003;-81
2023/01/14 16:02:21;;;;;;;;;;;7.90;81.50;;;;;;5056491;28;19909;-81
2023/01/14 16:04:47;;;;;;;;;;;8.00;81.90;;;;;;5055802;28;19917;-81
2023/01/14 16:07:14;;;;;;;;;;;7.90;81.90;;;;;;5049627;28;19920;-81
2023/01/14 16:09:40;;;;;;;;;;;7.90;82.00;;;;;;5058278;28;20365;-81
2023/01/14 16:12:10;;;;;;;;;;;7.90;82.00;;;;;;5037047;28;20051;-82
2023/01/14 16:14:37;;;;;;;;;;;8.00;82.00;;;;;;5046730;28;19931;-82
2023/01/14 16:17:03;;;;;;;;;;;7.90;82.00;;;;;;5042121;28;19909;-81
2023/01/14 16:19:29;;;;;;;;;;;7.90;82.00;;;;;;5060187;28;19913;-81
2023/01/14 16:21:54;;;;;;;;;;;7.90;82.10;;;;;;5061370;28;19909;-81
2023/01/14 16:24:20;;;;;;;;;;;7.90;82.00;;;;;;5060611;28;20354;-81
2023/01/14 16:26:46;;;;;;;;;;;8.00;82.00;;;;;;5059196;28;20000;-82
2023/01/14 16:29:11;;;;;;;;;;;8.00;81.50;;;;;;5057159;28;19916;-81
2023/01/14 16:31:37;;;;;;;;;;;8.00;81.10;;;;;;5060118;28;19943;-81
2023/01/14 16:34:02;;;;;;;;;;;8.00;80.70;;;;;;5062730;28;19916;-81
2023/01/14 16:36:28;;;;;;;;;;;8.00;80.20;;;;;;5062140;28;19913;-80
2023/01/14 16:38:53;;;;;;;;;;;8.00;79.90;;;;;;5060129;28;19912;-81
2023/01/14 16:41:19;;;;;;;;;;;8.00;79.80;;;;;;5043982;28;19960;-81
2023/01/14 16:43:46;;;;;;;;;;;8.00;79.70;;;;;;5053871;28;19909;-81
2023/01/14 16:46:12;;;;;;;;;;;8.00;79.70;;;;;;5057669;28;20309;-82
2023/01/14 16:48:37;;;;;;;;;;;8.00;79.60;;;;;;5040122;28;20024;-85
2023/01/14 16:51:04;;;;;;;;;;;8.00;79.70;;;;;;5059565;28;19913;-85
2023/01/14 16:53:30;;;;;;;;;;;8.00;79.70;;;;;;5047605;28;19925;-85
2023/01/14 16:55:55;;;;;;;;;;;8.00;79.50;;;;;;5038375;28;19908;-85
2023/01/14 16:58:22;;;;;;;;;;;8.00;79.20;;;;;;5057972;28;19908;-85
2023/01/14 17:00:48;;;;;;;;;;;8.00;78.80;;;;;;5058905;28;19913;-85
2023/01/14 17:03:14;;;;;;;;;;;8.00;78.60;;;;;;5059634;28;19912;-84
2023/01/14 17:05:40;;;;;;;;;;;7.90;78.20;;;;;;5058450;28;20380;-85
2023/01/14 17:08:06;;;;;;;;;;;8.00;78.20;;;;;;5039075;28;19913;-86
2023/01/14 17:10:31;;;;;;;;;;;8.00;78.00;;;;;;5056561;28;20277;-84
2023/01/14 17:12:57;;;;;;;;;;;8.00;77.40;;;;;;5056959;28;19913;-86
2023/01/14 17:15:24;;;;;;;;;;;8.00;76.70;;;;;;5056669;28;19924;-84
2023/01/14 17:17:50;;;;;;;;;;;8.00;76.10;;;;;;5058523;28;19993;-85
2023/01/14 17:20:20;;;;;;;;;;;8.00;75.70;;;;;;5057108;28;19971;-85
2023/01/14 17:22:46;;;;;;;;;;;8.00;75.50;;;;;;5042360;28;19913;-85
2023/01/14 17:25:13;;;;;;;;;;;8.00;75.40;;;;;;5019116;28;20008;-81
2023/01/14 17:27:39;;;;;;;;;;;8.00;75.20;;;;;;5020055;28;19913;-82
2023/01/14 17:30:15;;;;;;;;;;;8.00;75.10;;;;;;5035602;28;19913;-84
2023/01/14 17:35:48;;;;;;;;;;;8.00;74.80;;;;;;5039645;28;19915;-84
2023/01/14 17:38:51;;;;;;;;;;;8.00;74.60;;;;;;5051482;28;19916;-85
2023/01/14 17:44:24;;;;;;;;;;;8.00;74.10;;;;;;5053816;28;19923;-84
2023/01/14 17:46:55;;;;;;;;;;;8.00;73.90;;;;;;5036902;28;19913;-85
2023/01/14 17:49:20;;;;;;;;;;;8.00;73.60;;;;;;5023189;28;19983;-85
2023/01/14 17:51:46;;;;;;;;;;;8.10;73.30;;;;;;5038785;28;19913;-85
2023/01/14 17:54:15;;;;;;;;;;;8.00;73.20;;;;;;5056225;28;20369;-85
2023/01/14 17:56:41;;;;;;;;;;;8.10;73.30;;;;;;5040708;28;19908;-85
2023/01/14 17:59:06;;;;;;;;;;;8.10;73.00;;;;;;5059376;28;19962;-85
2023/01/14 18:01:32;;;;;;;;;;;8.10;72.90;;;;;;5061728;28;20003;-85
2023/01/14 18:03:58;;;;;;;;;;;8.10;72.50;;;;;;5040473;28;19920;-85
2023/01/14 18:06:36;;;;;;;;;;;8.10;72.30;;;;;;5031354;28;20431;-85
2023/01/14 18:09:02;;;;;;;;;;;8.10;72.00;;;;;;5049459;28;19914;-85
2023/01/14 18:11:28;;;;;;;;;;;8.10;71.90;;;;;;5031265;28;19909;-86
2023/01/14 18:13:53;;;;;;;;;;;8.10;71.60;;;;;;5061497;28;19956;-86
2023/01/14 18:16:19;;;;;;;;;;;8.20;71.30;;;;;;5038442;28;19919;-84
2023/01/14 18:18:44;;;;;;;;;;;8.20;70.90;;;;;;5061809;28;19909;-85
2023/01/14 18:21:11;;;;;;;;;;;8.20;70.50;;;;;;5043729;28;19981;-84
2023/01/14 18:23:40;;;;;;;;;;;8.20;70.40;;;;;;5056688;28;19913;-84
2023/01/14 18:26:09;;;;;;;;;;;8.20;70.30;;;;;;5041900;28;19909;-85
2023/01/14 18:28:40;;;;;;;;;;;8.30;70.40;;;;;;5043607;28;20325;-85
2023/01/14 18:31:06;;;;;;;;;;;8.30;70.10;;;;;;5031898;28;19932;-85
2023/01/14 18:33:31;;;;;;;;;;;8.30;70.10;;;;;;5042834;28;19951;-85
2023/01/14 18:36:00;;;;;;;;;;;8.30;70.20;;;;;;5043808;28;19909;-85
2023/01/14 18:38:30;;;;;;;;;;;8.30;70.20;;;;;;5058693;28;19932;-85
2023/01/14 18:40:56;;;;;;;;;;;8.30;70.30;;;;;;5060677;28;19923;-86
2023/01/14 18:43:22;;;;;;;;;;;8.30;71.00;;;;;;5041931;28;19916;-84
2023/01/14 18:45:48;;;;;;;;;;;8.30;70.30;;;;;;5050812;28;19913;-84
2023/01/14 18:48:13;;;;;;;;;;;8.30;70.30;;;;;;5063120;28;19916;-83
2023/01/14 18:50:39;;;;;;;;;;;8.30;70.20;;;;;;5051230;28;19920;-84
2023/01/14 18:53:04;;;;;;;;;;;8.40;70.30;;;;;;5059955;28;19917;-83
2023/01/14 18:55:30;;;;;;;;;;;8.40;71.10;;;;;;5044215;28;19995;-83
2023/01/14 18:57:56;;;;;;;;;;;8.50;73.20;;;;;;5062421;28;19909;-83
2023/01/14 19:00:22;;;;;;;;;;;8.40;74.70;;;;;;5061412;28;19916;-83
2023/01/14 19:02:47;;;;;;;;;;;8.40;76.60;;;;;;5061236;28;19909;-83
2023/01/14 19:05:13;;;;;;;;;;;8.40;77.40;;;;;;5063256;28;19909;-85
2023/01/14 19:07:38;;;;;;;;;;;8.40;77.70;;;;;;5027771;28;19909;-82
2023/01/14 19:10:05;;;;;;;;;;;8.30;78.00;;;;;;5058991;28;19968;-83
2023/01/14 19:12:30;;;;;;;;;;;8.20;78.30;;;;;;5049290;28;19959;-83
2023/01/14 19:14:56;;;;;;;;;;;8.20;78.50;;;;;;5040294;28;20289;-83
2023/01/14 19:17:21;;;;;;;;;;;8.20;78.50;;;;;;5026932;28;19944;-84
2023/01/14 19:19:47;;;;;;;;;;;8.20;78.40;;;;;;5038973;28;19963;-83
2023/01/14 19:25:39;;;;;;;;;;;8.20;78.60;;;;;;5039064;28;20393;-86
2023/01/14 19:28:04;;;;;;;;;;;8.20;78.60;;;;;;5023374;28;19952;-83
2023/01/14 19:30:30;;;;;;;;;;;8.30;78.20;;;;;;5041909;28;19921;-84
2023/01/14 19:32:55;;;;;;;;;;;8.30;77.40;;;;;;5044922;28;19913;-84
2023/01/14 19:35:21;;;;;;;;;;;8.40;76.80;;;;;;5043391;28;19960;-84
2023/01/14 19:37:46;;;;;;;;;;;8.40;76.40;;;;;;5052841;28;19916;-83
2023/01/14 19:40:12;;;;;;;;;;;8.50;75.80;;;;;;5040732;28;19909;-86
2023/01/14 19:42:40;;;;;;;;;;;8.50;75.00;;;;;;5051222;28;19919;-84
2023/01/14 19:45:06;;;;;;;;;;;8.60;74.90;;;;;;5047768;28;19908;-85
2023/01/14 19:47:31;;;;;;;;;;;8.60;74.50;;;;;;5050670;28;19940;-84